createdAt,value
2023-04-17T00:01:19.456Z,3.13
2023-04-17T00:03:48.587Z,3.06
2023-04-17T00:06:16.497Z,3.04
2023-04-17T00:08:44.637Z,3.01
2023-04-17T00:11:12.811Z,2.96
2023-04-17T00:13:40.793Z,2.90
2023-04-17T00:16:10.757Z,2.73
2023-04-17T00:18:40.166Z,2.74
2023-04-17T00:21:08.097Z,2.76
2023-04-17T00:23:36.075Z,2.74
2023-04-17T00:26:04.122Z,1.56
2023-04-17T00:28:31.998Z,2.70
2023-04-17T00:30:59.843Z,2.66
2023-04-17T00:33:28.105Z,2.45
2023-04-17T00:35:57.286Z,2.58
2023-04-17T00:38:25.167Z,2.52
2023-04-17T00:40:53.450Z,2.35
2023-04-17T00:43:21.291Z,2.48
2023-04-17T00:45:49.544Z,2.47
2023-04-17T00:48:18.456Z,2.44
2023-04-17T00:50:46.873Z,2.41
2023-04-17T00:53:16.322Z,2.39
2023-04-17T00:55:45.895Z,2.13
2023-04-17T00:58:14.492Z,2.32
2023-04-17T01:00:42.398Z,2.28
2023-04-17T01:03:10.753Z,2.23
2023-04-17T01:05:38.787Z,2.19
2023-04-17T01:08:06.755Z,2.11
2023-04-17T01:10:36.250Z,2.08
2023-04-17T01:13:04.994Z,2.03
2023-04-17T01:15:32.881Z,2.02
2023-04-17T01:18:01.232Z,2.00
2023-04-17T01:20:31.267Z,1.55
2023-04-17T01:22:59.670Z,1.63
2023-04-17T01:25:29.651Z,1.93
2023-04-17T01:27:57.729Z,1.87
2023-04-17T01:30:25.831Z,1.89
2023-04-17T01:32:55.201Z,1.84
2023-04-17T01:35:23.342Z,1.78
2023-04-17T01:37:51.375Z,1.77
2023-04-17T01:40:19.606Z,1.75
2023-04-17T01:42:49.125Z,1.74
2023-04-17T01:45:17.188Z,1.09
2023-04-17T01:47:45.532Z,1.66
2023-04-17T01:50:14.207Z,1.12
2023-04-17T01:52:42.081Z,1.61
2023-04-17T01:55:11.032Z,0.83
2023-04-17T01:57:38.978Z,1.55
2023-04-17T02:00:10.960Z,1.51
2023-04-17T02:02:39.287Z,1.04
2023-04-17T02:05:08.123Z,1.10
2023-04-17T02:07:36.184Z,1.43
2023-04-17T02:10:04.584Z,0.92
2023-04-17T02:12:32.407Z,1.39
2023-04-17T02:15:01.392Z,1.05
2023-04-17T02:17:31.060Z,1.25
2023-04-17T02:19:58.936Z,1.25
2023-04-17T02:22:26.800Z,1.38
2023-04-17T02:24:54.791Z,1.37
2023-04-17T02:27:22.654Z,1.31
2023-04-17T02:29:50.667Z,1.33
2023-04-17T02:32:18.697Z,1.30
2023-04-17T02:34:47.981Z,1.28
2023-04-17T02:37:15.941Z,0.78
2023-04-17T02:39:44.187Z,1.24
2023-04-17T02:42:13.122Z,1.26
2023-04-17T02:44:41.504Z,1.23
2023-04-17T02:47:10.030Z,1.22
2023-04-17T02:49:37.854Z,1.23
2023-04-17T02:52:07.209Z,1.21
2023-04-17T02:54:35.341Z,1.18
2023-04-17T02:57:03.220Z,1.19
2023-04-17T02:59:31.111Z,1.17
2023-04-17T03:01:59.849Z,0.90
2023-04-17T03:04:28.737Z,1.14
2023-04-17T03:06:56.644Z,0.88
2023-04-17T03:09:26.243Z,1.11
2023-04-17T03:11:54.223Z,1.07
2023-04-17T03:14:22.084Z,1.01
2023-04-17T03:16:50.165Z,0.35
2023-04-17T03:19:18.087Z,0.80
2023-04-17T03:21:46.273Z,1.02
2023-04-17T03:24:14.314Z,1.04
2023-04-17T03:26:43.575Z,0.81
2023-04-17T03:29:11.767Z,0.98
2023-04-17T03:31:39.954Z,0.78
2023-04-17T03:34:07.808Z,0.96
2023-04-17T03:36:36.414Z,0.85
2023-04-17T03:39:04.500Z,0.98
2023-04-17T03:41:32.344Z,0.53
2023-04-17T03:44:01.712Z,0.96
2023-04-17T03:46:29.931Z,-1.79
2023-04-17T03:48:57.780Z,0.94
2023-04-17T03:51:27.149Z,0.94
2023-04-17T03:53:55.221Z,0.55
2023-04-17T03:56:23.123Z,0.35
2023-04-17T03:58:51.100Z,0.44
2023-04-17T04:01:20.485Z,0.81
2023-04-17T04:03:48.439Z,0.78
2023-04-17T04:06:20.382Z,1.00
2023-04-17T04:08:48.478Z,0.73
2023-04-17T04:11:16.423Z,1.01
2023-04-17T04:13:44.385Z,1.06
2023-04-17T04:16:12.365Z,1.10
2023-04-17T04:18:41.551Z,1.02
2023-04-17T04:21:09.856Z,1.14
2023-04-17T04:23:41.434Z,1.16
2023-04-17T04:26:09.353Z,1.20
2023-04-17T04:28:38.219Z,1.27
2023-04-17T04:31:07.048Z,1.31
2023-04-17T04:33:35.346Z,0.27
2023-04-17T04:36:04.671Z,1.35
2023-04-17T04:38:33.140Z,1.48
2023-04-17T04:41:06.456Z,1.52
2023-04-17T04:43:35.653Z,1.60
2023-04-17T04:46:03.713Z,1.28
2023-04-17T04:48:31.650Z,1.61
2023-04-17T04:50:59.802Z,1.65
2023-04-17T04:53:29.383Z,1.84
2023-04-17T04:55:57.280Z,1.92
2023-04-17T04:58:25.489Z,1.99
2023-04-17T05:00:53.658Z,2.04
2023-04-17T05:03:22.669Z,1.10
2023-04-17T05:05:51.533Z,2.16
2023-04-17T05:08:20.404Z,2.23
2023-04-17T05:10:49.927Z,2.00
2023-04-17T05:13:18.058Z,2.33
2023-04-17T05:15:45.904Z,2.39
2023-04-17T05:18:13.815Z,2.46
2023-04-17T05:20:42.030Z,2.53
2023-04-17T05:23:09.924Z,1.57
2023-04-17T05:25:38.027Z,2.01
2023-04-17T05:28:07.584Z,2.12
2023-04-17T05:30:35.497Z,2.78
2023-04-17T05:33:03.473Z,2.85
2023-04-17T05:35:31.521Z,1.81
2023-04-17T05:37:59.385Z,3.02
2023-04-17T05:40:27.287Z,3.10
2023-04-17T05:42:55.404Z,2.43
2023-04-17T05:45:25.760Z,2.89
2023-04-17T05:47:53.928Z,3.13
2023-04-17T05:50:22.079Z,3.41
2023-04-17T05:52:50.069Z,3.51
2023-04-17T05:55:20.140Z,3.59
2023-04-17T05:57:51.439Z,3.69
2023-04-17T06:00:22.763Z,3.81
2023-04-17T06:02:53.522Z,3.74
2023-04-17T06:05:21.897Z,4.04
2023-04-17T06:07:50.352Z,4.17
2023-04-17T06:10:18.681Z,4.30
2023-04-17T06:12:46.751Z,4.13
2023-04-17T06:15:14.598Z,4.49
2023-04-17T06:17:42.678Z,4.57
2023-04-17T06:20:12.581Z,4.66
2023-04-17T06:22:44.385Z,4.74
2023-04-17T06:25:12.283Z,4.76
2023-04-17T06:27:40.497Z,5.01
2023-04-17T06:30:10.364Z,5.11
2023-04-17T06:32:42.754Z,5.24
2023-04-17T06:35:12.652Z,5.31
2023-04-17T06:37:40.573Z,5.26
2023-04-17T06:40:09.764Z,5.49
2023-04-17T06:42:37.795Z,5.61
2023-04-17T06:45:06.350Z,5.76
2023-04-17T06:47:34.280Z,5.92
2023-04-17T06:50:02.457Z,5.82
2023-04-17T06:52:31.872Z,6.09
2023-04-17T06:55:00.182Z,5.89
2023-04-17T06:57:28.198Z,6.61
2023-04-17T06:59:57.716Z,6.95
2023-04-17T07:02:25.787Z,7.17
2023-04-17T07:04:55.122Z,8.04
2023-04-17T07:07:23.323Z,8.76
2023-04-17T07:09:52.586Z,9.54
2023-04-17T07:12:20.826Z,10.23
2023-04-17T07:14:48.892Z,10.83
2023-04-17T07:17:16.792Z,11.47
2023-04-17T07:19:44.815Z,12.03
2023-04-17T07:22:12.738Z,12.41
2023-04-17T07:24:40.739Z,12.81
2023-04-17T07:27:10.098Z,12.93
2023-04-17T07:29:38.139Z,13.38
2023-04-17T07:32:06.966Z,13.13
2023-04-17T07:34:35.315Z,12.82
2023-04-17T07:37:03.306Z,13.45
2023-04-17T07:39:31.789Z,13.43
2023-04-17T07:41:59.935Z,14.21
2023-04-17T07:44:29.470Z,14.16
2023-04-17T07:46:57.612Z,14.57
2023-04-17T07:49:25.729Z,14.73
2023-04-17T07:51:53.976Z,14.23
2023-04-17T07:54:21.950Z,15.31
2023-04-17T07:56:51.176Z,15.08
2023-04-17T07:59:19.169Z,14.85
2023-04-17T08:01:52.824Z,15.96
2023-04-17T08:04:21.285Z,16.06
2023-04-17T08:06:49.524Z,16.20
2023-04-17T08:09:17.517Z,16.22
2023-04-17T08:11:56.244Z,16.44
2023-04-17T08:14:25.563Z,16.54
2023-04-17T08:16:55.098Z,16.10
2023-04-17T08:19:22.977Z,16.32
2023-04-17T08:21:51.948Z,17.18
2023-04-17T08:24:20.219Z,17.71
2023-04-17T08:26:49.508Z,17.82
2023-04-17T08:29:17.584Z,17.92
2023-04-17T08:31:45.466Z,17.91
2023-04-17T08:34:15.740Z,17.92
2023-04-17T08:36:43.974Z,17.99
2023-04-17T08:39:12.428Z,18.35
2023-04-17T08:41:47.552Z,18.50
2023-04-17T08:44:20.241Z,18.59
2023-04-17T08:46:49.023Z,18.58
2023-04-17T08:49:18.368Z,18.38
2023-04-17T08:51:47.259Z,18.77
2023-04-17T08:54:15.338Z,19.02
2023-04-17T08:56:43.381Z,19.14
2023-04-17T08:59:11.467Z,19.30
2023-04-17T09:01:39.594Z,19.27
2023-04-17T09:04:07.824Z,19.10
2023-04-17T09:06:54.303Z,19.70
2023-04-17T09:09:22.434Z,19.80
2023-04-17T09:12:09.664Z,19.91
2023-04-17T09:14:37.582Z,20.13
2023-04-17T09:17:05.608Z,19.94
2023-04-17T09:19:35.837Z,19.92
2023-04-17T09:22:21.718Z,19.92
2023-04-17T09:24:49.641Z,20.13
2023-04-17T09:27:25.081Z,20.22
2023-04-17T09:30:04.837Z,20.32
2023-04-17T09:32:34.474Z,20.33
2023-04-17T09:35:04.904Z,20.40
2023-04-17T09:37:52.145Z,20.65
2023-04-17T09:40:21.422Z,20.74
2023-04-17T09:42:59.646Z,20.84
2023-04-17T09:45:33.136Z,20.79
2023-04-17T09:48:04.192Z,20.84
2023-04-17T09:50:34.381Z,20.62
2023-04-17T09:53:06.213Z,21.28
2023-04-17T09:55:35.919Z,21.47
2023-04-17T09:58:05.192Z,21.67
2023-04-17T10:00:33.298Z,21.54
2023-04-17T10:03:01.433Z,21.79
2023-04-17T10:05:33.806Z,21.91
2023-04-17T10:08:02.366Z,20.99
2023-04-17T10:10:34.102Z,21.64
2023-04-17T10:13:05.586Z,21.77
2023-04-17T10:15:34.820Z,22.00
2023-04-17T10:18:24.942Z,22.27
2023-04-17T10:20:55.311Z,22.36
2023-04-17T10:23:31.531Z,22.45
2023-04-17T10:26:39.417Z,22.56
2023-04-17T10:29:09.243Z,22.60
2023-04-17T10:32:17.498Z,22.60
2023-04-17T10:34:46.678Z,22.46
2023-04-17T10:37:16.221Z,22.48
2023-04-17T10:39:53.000Z,22.62
2023-04-17T10:42:21.982Z,22.67
2023-04-17T10:44:56.865Z,22.53
2023-04-17T10:47:33.587Z,22.26
2023-04-17T10:50:04.431Z,22.10
2023-04-17T10:52:44.609Z,22.05
2023-04-17T10:55:17.546Z,22.12
2023-04-17T10:58:00.749Z,22.22
2023-04-17T11:00:33.286Z,22.45
2023-04-17T11:03:03.687Z,22.50
2023-04-17T11:05:32.420Z,22.52
2023-04-17T11:08:00.794Z,22.54
2023-04-17T11:10:30.007Z,21.82
2023-04-17T11:12:57.835Z,22.50
2023-04-17T11:15:31.570Z,22.51
2023-04-17T11:18:00.430Z,22.62
2023-04-17T11:20:30.837Z,22.75
2023-04-17T11:23:02.441Z,22.78
2023-04-17T11:25:33.693Z,22.85
2023-04-17T11:28:03.099Z,22.80
2023-04-17T11:30:34.563Z,21.98
2023-04-17T11:33:04.443Z,21.69
2023-04-17T11:35:34.078Z,21.84
2023-04-17T11:38:14.192Z,21.89
2023-04-17T11:40:46.745Z,21.16
2023-04-17T11:43:15.126Z,22.41
2023-04-17T11:45:47.317Z,21.81
2023-04-17T11:48:16.585Z,22.16
2023-04-17T11:50:45.550Z,22.90
2023-04-17T11:53:18.402Z,23.19
2023-04-17T11:55:48.564Z,23.36
2023-04-17T11:58:16.818Z,23.08
2023-04-17T12:00:46.422Z,22.79
2023-04-17T12:03:35.325Z,23.15
2023-04-17T12:06:05.355Z,23.04
2023-04-17T12:08:43.680Z,23.48
2023-04-17T12:11:19.476Z,24.37
2023-04-17T12:13:48.799Z,24.78
2023-04-17T12:16:18.286Z,25.01
2023-04-17T12:18:46.787Z,25.45
2023-04-17T12:21:15.160Z,25.92
2023-04-17T12:23:43.375Z,26.39
2023-04-17T12:26:11.315Z,26.75
2023-04-17T12:28:39.493Z,26.99
2023-04-17T12:31:07.759Z,27.06
2023-04-17T12:33:36.987Z,26.59
2023-04-17T12:36:06.483Z,26.61
2023-04-17T12:38:34.486Z,26.55
2023-04-17T12:41:02.260Z,27.27
2023-04-17T12:43:30.122Z,27.84
2023-04-17T12:45:58.683Z,27.11
2023-04-17T12:48:26.674Z,27.57
2023-04-17T12:50:56.096Z,27.92
2023-04-17T12:53:24.310Z,28.13
2023-04-17T12:55:52.186Z,28.65
2023-04-17T12:58:20.573Z,28.55
2023-04-17T13:00:48.782Z,27.85
2023-04-17T13:03:16.833Z,28.93
2023-04-17T13:05:45.218Z,28.82
2023-04-17T13:08:16.455Z,28.56
2023-04-17T13:10:44.282Z,27.78
2023-04-17T13:13:12.268Z,28.44
2023-04-17T13:15:40.259Z,28.48
2023-04-17T13:18:08.266Z,28.06
2023-04-17T13:20:36.437Z,28.37
2023-04-17T13:23:04.426Z,28.85
2023-04-17T13:25:33.910Z,28.85
2023-04-17T13:28:01.909Z,29.28
2023-04-17T13:30:29.873Z,29.35
2023-04-17T13:32:57.680Z,29.45
2023-04-17T13:35:25.655Z,29.69
2023-04-17T13:37:55.055Z,29.08
2023-04-17T13:40:22.938Z,27.91
2023-04-17T13:42:52.638Z,27.96
2023-04-17T13:45:20.674Z,28.64
2023-04-17T13:47:48.564Z,29.24
2023-04-17T13:50:16.514Z,29.93
2023-04-17T13:52:44.549Z,30.04
2023-04-17T13:55:14.814Z,29.63
2023-04-17T13:57:42.808Z,29.52
2023-04-17T14:00:13.732Z,30.12
2023-04-17T14:02:42.700Z,30.09
2023-04-17T14:05:13.547Z,30.08
2023-04-17T14:07:43.779Z,29.72
2023-04-17T14:10:12.236Z,29.20
2023-04-17T14:12:40.145Z,28.69
2023-04-17T14:15:09.359Z,29.03
2023-04-17T14:17:42.961Z,28.90
2023-04-17T14:20:13.204Z,29.68
2023-04-17T14:22:41.024Z,30.13
2023-04-17T14:25:12.459Z,30.35
2023-04-17T14:27:40.609Z,30.40
2023-04-17T14:30:09.661Z,30.22
2023-04-17T14:32:39.676Z,30.26
2023-04-17T14:35:08.647Z,30.02
2023-04-17T14:37:36.629Z,29.98
2023-04-17T14:40:05.182Z,30.18
2023-04-17T14:42:40.810Z,29.84
2023-04-17T14:45:19.186Z,29.27
2023-04-17T14:47:48.649Z,29.22
2023-04-17T14:50:16.556Z,29.60
2023-04-17T14:52:44.491Z,29.87
2023-04-17T14:55:13.337Z,29.48
2023-04-17T14:57:41.411Z,28.96
2023-04-17T15:00:10.261Z,28.11
2023-04-17T15:02:39.579Z,28.35
2023-04-17T15:05:10.492Z,27.79
2023-04-17T15:07:38.286Z,28.20
2023-04-17T15:10:07.019Z,27.44
2023-04-17T15:12:34.969Z,26.73
2023-04-17T15:15:03.199Z,25.65
2023-04-17T15:17:31.340Z,26.59
2023-04-17T15:20:00.850Z,26.56
2023-04-17T15:22:30.131Z,27.02
2023-04-17T15:24:58.142Z,27.28
2023-04-17T15:27:26.169Z,27.16
2023-04-17T15:29:54.068Z,27.06
2023-04-17T15:32:22.124Z,26.93
2023-04-17T15:34:50.105Z,26.34
2023-04-17T15:37:17.982Z,26.24
2023-04-17T15:39:47.417Z,25.82
2023-04-17T15:42:15.543Z,25.38
2023-04-17T15:44:43.729Z,25.36
2023-04-17T15:47:11.669Z,25.51
2023-04-17T15:49:39.695Z,24.24
2023-04-17T15:52:08.355Z,25.29
2023-04-17T15:54:36.609Z,24.72
2023-04-17T15:57:06.038Z,24.30
2023-04-17T15:59:34.114Z,24.20
2023-04-17T16:02:04.079Z,23.85
2023-04-17T16:04:32.379Z,23.45
2023-04-17T16:07:00.461Z,23.27
2023-04-17T16:09:28.419Z,23.03
2023-04-17T16:11:57.197Z,23.23
2023-04-17T16:14:27.957Z,23.40
2023-04-17T16:16:55.897Z,23.20
2023-04-17T16:19:23.900Z,22.99
2023-04-17T16:21:51.740Z,23.10
2023-04-17T16:24:19.689Z,23.09
2023-04-17T16:26:47.700Z,22.98
2023-04-17T16:29:15.616Z,22.94
2023-04-17T16:31:45.120Z,22.55
2023-04-17T16:34:14.437Z,22.41
2023-04-17T16:36:45.295Z,22.18
2023-04-17T16:39:17.542Z,21.63
2023-04-17T16:41:46.932Z,20.09
2023-04-17T16:44:14.871Z,20.82
2023-04-17T16:47:09.471Z,20.61
2023-04-17T16:49:32.382Z,20.16
2023-04-17T16:52:00.552Z,20.23
2023-04-17T16:54:28.482Z,19.97
2023-04-17T16:56:56.470Z,19.56
2023-04-17T16:59:24.798Z,18.95
2023-04-17T17:01:54.074Z,18.07
2023-04-17T17:04:23.460Z,17.75
2023-04-17T17:06:52.698Z,16.99
2023-04-17T17:09:20.704Z,16.96
2023-04-17T17:11:49.058Z,16.46
2023-04-17T17:14:20.017Z,15.77
2023-04-17T17:16:47.943Z,15.91
2023-04-17T17:19:17.173Z,15.42
2023-04-17T17:21:45.215Z,15.22
2023-04-17T17:24:13.073Z,14.45
2023-04-17T17:26:40.978Z,14.39
2023-04-17T17:29:09.365Z,14.44
2023-04-17T17:31:37.269Z,14.17
2023-04-17T17:34:22.617Z,13.84
2023-04-17T17:36:54.895Z,13.74
2023-04-17T17:39:22.880Z,13.54
2023-04-17T17:41:50.795Z,13.40
2023-04-17T17:44:19.023Z,13.22
2023-04-17T17:46:47.092Z,13.03
2023-04-17T17:49:14.990Z,12.93
2023-04-17T17:51:45.942Z,12.76
2023-04-17T17:54:15.295Z,12.66
2023-04-17T17:56:44.333Z,12.12
2023-04-17T17:59:12.415Z,12.31
2023-04-17T18:01:40.581Z,12.20
2023-04-17T18:04:08.987Z,11.76
2023-04-17T18:06:37.251Z,11.85
2023-04-17T18:09:06.008Z,11.86
2023-04-17T18:11:35.322Z,11.08
2023-04-17T18:14:03.390Z,11.26
2023-04-17T18:16:32.724Z,11.39
2023-04-17T18:19:03.603Z,11.29
2023-04-17T18:24:00.320Z,8.66
2023-04-17T18:26:28.488Z,10.85
2023-04-17T18:28:57.812Z,10.43
2023-04-17T18:31:26.742Z,10.78
2023-04-17T18:33:55.086Z,10.40
2023-04-17T18:36:23.088Z,10.81
2023-04-17T18:38:51.049Z,10.74
2023-04-17T18:41:19.024Z,10.68
2023-04-17T18:43:46.947Z,10.60
2023-04-17T18:46:18.248Z,10.33
2023-04-17T18:48:46.320Z,10.43
2023-04-17T18:51:15.727Z,10.03
2023-04-17T18:53:43.679Z,10.18
2023-04-17T18:56:13.797Z,10.12
2023-04-17T18:58:42.041Z,10.06
2023-04-17T19:01:10.726Z,9.93
2023-04-17T19:03:41.911Z,10.10
2023-04-17T19:06:14.439Z,10.02
2023-04-17T19:08:42.815Z,9.78
2023-04-17T19:11:10.656Z,9.85
2023-04-17T19:13:38.824Z,9.80
2023-04-17T19:16:07.032Z,9.76
2023-04-17T19:18:34.976Z,9.75
2023-04-17T19:21:07.049Z,9.71
2023-04-17T19:23:35.050Z,9.67
2023-04-17T19:26:02.916Z,9.60
2023-04-17T19:28:31.212Z,9.55
2023-04-17T19:31:00.897Z,9.46
2023-04-17T19:33:28.810Z,9.41
2023-04-17T19:35:58.403Z,9.29
2023-04-17T19:38:27.995Z,8.30
2023-04-17T19:41:14.866Z,9.25
2023-04-17T19:43:43.152Z,9.17
2023-04-17T19:46:11.296Z,9.07
2023-04-17T19:48:39.271Z,9.04
2023-04-17T19:51:07.759Z,8.97
2023-04-17T19:53:38.498Z,8.92
2023-04-17T19:56:08.613Z,8.39
2023-04-17T19:58:37.563Z,8.83
2023-04-17T20:01:06.741Z,8.67
2023-04-17T20:03:35.769Z,8.73
2023-04-17T20:06:04.441Z,8.62
2023-04-17T20:08:32.498Z,8.54
2023-04-17T20:11:01.977Z,8.50
2023-04-17T20:13:30.067Z,8.47
2023-04-17T20:15:57.956Z,8.41
2023-04-17T20:18:26.143Z,7.73
2023-04-17T20:20:54.328Z,8.35
2023-04-17T20:23:22.421Z,8.28
2023-04-17T20:25:50.677Z,7.97
2023-04-17T20:28:20.132Z,8.15
2023-04-17T20:30:48.245Z,8.12
2023-04-17T20:33:16.310Z,8.08
2023-04-17T20:35:44.324Z,8.03
2023-04-17T20:38:12.227Z,7.95
2023-04-17T20:40:40.244Z,7.89
2023-04-17T20:43:08.416Z,7.85
2023-04-17T20:45:37.706Z,7.50
2023-04-17T20:48:06.983Z,7.69
2023-04-17T20:50:35.198Z,7.48
2023-04-17T20:53:05.543Z,7.61
2023-04-17T20:55:36.249Z,7.54
2023-04-17T20:58:04.311Z,7.46
2023-04-17T21:00:32.548Z,7.40
2023-04-17T21:03:02.879Z,7.33
2023-04-17T21:05:31.012Z,7.29
2023-04-17T21:07:58.917Z,7.12
2023-04-17T21:10:26.990Z,7.19
2023-04-17T21:12:56.039Z,7.14
2023-04-17T21:15:23.923Z,7.09
2023-04-17T21:17:51.972Z,7.06
2023-04-17T21:20:22.881Z,7.05
2023-04-17T21:22:52.793Z,7.01
2023-04-17T21:25:21.726Z,6.96
2023-04-17T21:27:49.606Z,6.94
2023-04-17T21:30:17.795Z,6.76
2023-04-17T21:32:47.522Z,6.82
2023-04-17T21:35:15.565Z,6.65
2023-04-17T21:37:44.804Z,6.69
2023-04-17T21:40:15.966Z,6.66
2023-04-17T21:42:45.999Z,6.60
2023-04-17T21:45:16.426Z,6.52
2023-04-17T21:47:44.379Z,6.46
2023-04-17T21:50:12.396Z,6.42
2023-04-17T21:52:40.670Z,6.32
2023-04-17T21:55:10.467Z,6.33
2023-04-17T21:57:38.848Z,6.17
2023-04-17T22:00:11.623Z,6.25
2023-04-17T22:02:39.761Z,5.99
2023-04-17T22:05:08.214Z,6.01
2023-04-17T22:07:43.975Z,5.87
2023-04-17T22:10:21.052Z,6.05
2023-04-17T22:12:49.190Z,5.98
2023-04-17T22:15:17.227Z,5.94
2023-04-17T22:17:45.437Z,5.87
2023-04-17T22:20:14.112Z,5.83
2023-04-17T22:22:42.025Z,5.76
2023-04-17T22:25:10.528Z,5.77
2023-04-17T22:27:39.929Z,5.71
2023-04-17T22:30:08.678Z,5.68
2023-04-17T22:32:36.634Z,5.36
2023-04-17T22:35:04.826Z,5.65
2023-04-17T22:37:32.856Z,5.62
2023-04-17T22:40:01.052Z,5.27
2023-04-17T22:42:29.036Z,5.54
2023-04-17T22:44:58.537Z,5.11
2023-04-17T22:47:26.580Z,5.38
2023-04-17T22:49:55.351Z,5.42
2023-04-17T22:52:23.213Z,5.38
2023-04-17T22:54:51.165Z,5.32
2023-04-17T22:57:19.198Z,5.27
2023-04-17T22:59:47.073Z,5.07
2023-04-17T23:02:16.736Z,5.20
2023-04-17T23:04:47.210Z,5.16
2023-04-17T23:07:15.120Z,4.85
2023-04-17T23:09:43.275Z,5.06
2023-04-17T23:12:11.374Z,4.77
2023-04-17T23:14:41.723Z,5.00
2023-04-17T23:17:11.517Z,4.95
2023-04-17T23:19:41.202Z,4.82
2023-04-17T23:22:09.196Z,4.89
2023-04-17T23:24:37.456Z,4.82
2023-04-17T23:27:05.644Z,4.77
2023-04-17T23:29:33.555Z,4.71
2023-04-17T23:32:01.548Z,4.68
2023-04-17T23:34:29.544Z,4.64
2023-04-17T23:36:58.785Z,4.63
2023-04-17T23:39:26.875Z,4.35
2023-04-17T23:41:54.936Z,4.55
2023-04-17T23:44:22.882Z,3.39
2023-04-17T23:46:51.280Z,4.57
2023-04-17T23:49:19.541Z,4.56
2023-04-17T23:51:47.423Z,4.21
2023-04-17T23:54:17.420Z,3.84
2023-04-17T23:56:45.412Z,3.36
2023-04-17T23:59:13.537Z,4.40
